createdAt,value
2018-08-25T00:00:06.477Z,1005.39
2018-08-25T00:01:06.433Z,1005.40
2018-08-25T00:02:06.400Z,1005.33
2018-08-25T00:03:06.361Z,1005.33
2018-08-25T00:04:06.339Z,1005.32
2018-08-25T00:05:06.290Z,1005.34
2018-08-25T00:06:06.249Z,1005.32
2018-08-25T00:07:06.212Z,1005.33
2018-08-25T00:08:06.171Z,1005.32
2018-08-25T00:09:06.145Z,1005.31
2018-08-25T00:10:06.093Z,1005.27
2018-08-25T00:11:06.051Z,1005.24
2018-08-25T00:12:06.012Z,1005.21
2018-08-25T00:13:05.980Z,1005.21
2018-08-25T00:14:05.967Z,1005.21
2018-08-25T00:15:05.902Z,1005.21
2018-08-25T00:16:05.856Z,1005.15
2018-08-25T00:17:05.829Z,1005.15
2018-08-25T00:18:05.795Z,1005.13
2018-08-25T00:19:05.770Z,1005.13
2018-08-25T00:20:05.712Z,1005.12
2018-08-25T00:21:05.665Z,1005.08
2018-08-25T00:22:05.633Z,1005.09
2018-08-25T00:23:05.586Z,1005.07
2018-08-25T00:24:05.598Z,1005.05
2018-08-25T00:25:05.522Z,1004.99
2018-08-25T00:26:05.481Z,1005.01
2018-08-25T00:27:05.442Z,1004.97
2018-08-25T00:28:05.406Z,1004.93
2018-08-25T00:29:05.358Z,1004.96
2018-08-25T00:30:05.339Z,1004.91
2018-08-25T00:31:05.284Z,1004.93
2018-08-25T00:32:05.250Z,1004.88
2018-08-25T00:33:05.205Z,1004.91
2018-08-25T00:34:05.193Z,1004.85
2018-08-25T00:35:05.128Z,1004.83
2018-08-25T00:36:05.089Z,1004.82
2018-08-25T00:37:05.060Z,1004.85
2018-08-25T00:38:05.018Z,1004.81
2018-08-25T00:39:04.983Z,1004.80
2018-08-25T00:40:04.964Z,1004.80
2018-08-25T00:41:04.895Z,1004.77
2018-08-25T00:42:14.885Z,1004.73
2018-08-25T00:43:04.829Z,1004.78
2018-08-25T00:44:04.790Z,1004.73
2018-08-25T00:45:04.765Z,1004.73
2018-08-25T00:46:04.706Z,1004.73
2018-08-25T00:47:04.675Z,1004.71
2018-08-25T00:48:04.632Z,1004.71
2018-08-25T00:49:04.600Z,1004.68
2018-08-25T00:50:04.583Z,1004.66
2018-08-25T00:51:04.512Z,1004.65
2018-08-25T00:52:04.480Z,1004.72
2018-08-25T00:53:04.433Z,1004.63
2018-08-25T00:54:04.396Z,1004.66
2018-08-25T00:55:04.395Z,1004.64
2018-08-25T00:56:04.329Z,1004.64
2018-08-25T00:57:04.288Z,1004.64
2018-08-25T00:58:04.248Z,1004.58
2018-08-25T00:59:04.210Z,1004.59
2018-08-25T01:00:04.165Z,1004.58
2018-08-25T01:01:04.159Z,1004.57
2018-08-25T01:02:04.095Z,1004.57
2018-08-25T01:03:04.056Z,1004.57
2018-08-25T01:04:04.012Z,1004.56
2018-08-25T01:05:03.977Z,1004.55
2018-08-25T01:06:03.957Z,1004.52
2018-08-25T01:07:03.905Z,1004.55
2018-08-25T01:08:03.865Z,1004.54
2018-08-25T01:09:03.826Z,1004.49
2018-08-25T01:10:03.798Z,1004.49
2018-08-25T01:11:03.765Z,1004.47
2018-08-25T01:12:03.705Z,1004.48
2018-08-25T01:13:03.664Z,1004.48
2018-08-25T01:14:03.623Z,1004.43
2018-08-25T01:15:03.592Z,1004.48
2018-08-25T01:16:03.592Z,1004.34
2018-08-25T01:17:03.510Z,1004.34
2018-08-25T01:18:03.471Z,1004.32
2018-08-25T01:19:03.441Z,1004.32
2018-08-25T01:20:03.403Z,1004.35
2018-08-25T01:21:03.365Z,1004.33
2018-08-25T01:22:03.348Z,1004.34
2018-08-25T01:23:03.281Z,1004.30
2018-08-25T01:24:03.244Z,1004.33
2018-08-25T01:25:03.212Z,1004.33
2018-08-25T01:26:03.179Z,1004.32
2018-08-25T01:27:03.145Z,1004.26
2018-08-25T01:28:03.090Z,1004.27
2018-08-25T01:29:03.050Z,1004.25
2018-08-25T01:30:03.012Z,1004.27
2018-08-25T01:31:02.981Z,1004.25
2018-08-25T01:32:02.966Z,1004.20
2018-08-25T01:33:02.894Z,1004.19
2018-08-25T01:34:02.855Z,1004.22
2018-08-25T01:35:02.828Z,1004.17
2018-08-25T01:36:02.785Z,1004.14
2018-08-25T01:37:02.751Z,1004.14
2018-08-25T01:38:02.775Z,1004.13
2018-08-25T01:39:02.663Z,1004.12
2018-08-25T01:40:02.624Z,1004.07
2018-08-25T01:41:02.596Z,1004.04
2018-08-25T01:42:02.544Z,1004.02
2018-08-25T01:43:02.548Z,1004.01
2018-08-25T01:44:02.480Z,1003.98
2018-08-25T01:45:02.444Z,1003.97
2018-08-25T01:46:02.408Z,1003.97
2018-08-25T01:47:02.358Z,1003.95
2018-08-25T01:48:02.341Z,1003.90
2018-08-25T01:49:02.284Z,1003.88
2018-08-25T01:50:02.249Z,1003.91
2018-08-25T01:51:02.202Z,1003.90
2018-08-25T01:52:02.159Z,1003.90
2018-08-25T01:53:02.153Z,1003.88
2018-08-25T01:54:02.090Z,1003.82
2018-08-25T01:55:02.060Z,1003.89
2018-08-25T01:56:02.017Z,1003.86
2018-08-25T01:57:01.983Z,1003.82
2018-08-25T01:58:01.966Z,1003.75
2018-08-25T01:59:01.899Z,1003.79
2018-08-25T02:00:01.857Z,1003.73
2018-08-25T02:01:01.821Z,1003.73
2018-08-25T02:02:01.780Z,1003.73
2018-08-25T02:03:01.768Z,1003.70
2018-08-25T02:04:01.712Z,1003.60
2018-08-25T02:05:01.662Z,1003.71
2018-08-25T02:06:01.639Z,1003.68
2018-08-25T02:07:01.595Z,1003.65
2018-08-25T02:08:01.582Z,1003.66
2018-08-25T02:09:01.527Z,1003.65
2018-08-25T02:10:01.478Z,1003.65
2018-08-25T02:11:01.433Z,1003.60
2018-08-25T02:12:01.394Z,1003.57
2018-08-25T02:13:01.355Z,1003.58
2018-08-25T02:14:01.341Z,1003.57
2018-08-25T02:15:01.290Z,1003.52
2018-08-25T02:16:01.251Z,1003.54
2018-08-25T02:17:01.208Z,1003.54
2018-08-25T02:18:01.202Z,1003.50
2018-08-25T02:19:01.131Z,1003.52
2018-08-25T02:20:01.092Z,1003.52
2018-08-25T02:21:01.055Z,1003.49
2018-08-25T02:22:01.016Z,1003.50
2018-08-25T02:23:00.973Z,1003.49
2018-08-25T02:24:00.952Z,1003.46
2018-08-25T02:25:00.898Z,1003.46
2018-08-25T02:26:00.858Z,1003.46
2018-08-25T02:27:00.826Z,1003.43
2018-08-25T02:28:00.787Z,1003.42
2018-08-25T02:29:00.764Z,1003.41
2018-08-25T02:30:00.713Z,1003.43
2018-08-25T02:31:00.661Z,1003.40
2018-08-25T02:32:00.621Z,1003.38
2018-08-25T02:33:00.595Z,1003.33
2018-08-25T02:34:00.570Z,1003.35
2018-08-25T02:35:00.515Z,1003.33
2018-08-25T02:36:00.477Z,1003.34
2018-08-25T02:37:00.434Z,1003.37
2018-08-25T02:38:00.390Z,1003.38
2018-08-25T02:39:00.384Z,1003.39
2018-08-25T02:40:00.322Z,1003.41
2018-08-25T02:41:00.281Z,1003.40
2018-08-25T02:42:00.241Z,1003.36
2018-08-25T02:43:00.199Z,1003.40
2018-08-25T02:44:00.189Z,1003.34
2018-08-25T02:45:00.126Z,1003.29
2018-08-25T02:46:00.081Z,1003.30
2018-08-25T02:47:00.048Z,1003.30
2018-08-25T02:48:00.012Z,1003.35
2018-08-25T02:48:59.975Z,1003.30
2018-08-25T02:49:59.962Z,1003.30
2018-08-25T02:50:59.885Z,1003.34
2018-08-25T02:51:59.856Z,1003.35
2018-08-25T02:52:59.818Z,1003.34
2018-08-25T02:53:59.781Z,1003.42
2018-08-25T02:54:59.760Z,1003.38
2018-08-25T02:55:59.695Z,1003.38
2018-08-25T02:56:59.656Z,1003.38
2018-08-25T02:57:59.620Z,1003.38
2018-08-25T02:58:59.583Z,1003.42
2018-08-25T02:59:59.567Z,1003.49
2018-08-25T03:00:59.506Z,1003.57
2018-08-25T03:01:59.465Z,1003.54
2018-08-25T03:02:59.426Z,1003.63
2018-08-25T03:03:59.384Z,1003.59
2018-08-25T03:04:59.365Z,1003.52
2018-08-25T03:05:59.306Z,1003.47
2018-08-25T03:06:59.276Z,1003.49
2018-08-25T03:07:59.245Z,1003.50
2018-08-25T03:08:59.187Z,1003.43
2018-08-25T03:09:59.170Z,1003.39
2018-08-25T03:10:59.118Z,1003.41
2018-08-25T03:11:59.077Z,1003.38
2018-08-25T03:12:59.036Z,1003.40
2018-08-25T03:13:58.996Z,1003.41
2018-08-25T03:14:58.974Z,1003.43
2018-08-25T03:15:58.913Z,1003.40
2018-08-25T03:16:58.871Z,1003.39
2018-08-25T03:17:58.833Z,1003.32
2018-08-25T03:18:58.801Z,1003.33
2018-08-25T03:19:58.786Z,1003.31
2018-08-25T03:20:58.761Z,1003.35
2018-08-25T03:21:58.682Z,1003.33
2018-08-25T03:22:58.635Z,1003.34
2018-08-25T03:23:58.604Z,1003.36
2018-08-25T03:24:58.563Z,1003.41
2018-08-25T03:25:58.545Z,1003.42
2018-08-25T03:26:58.477Z,1003.42
2018-08-25T03:27:58.437Z,1003.42
2018-08-25T03:28:58.398Z,1003.34
2018-08-25T03:29:58.357Z,1003.35
2018-08-25T03:30:58.344Z,1003.33
2018-08-25T03:31:58.284Z,1003.31
2018-08-25T03:32:58.244Z,1003.28
2018-08-25T03:33:58.208Z,1003.27
2018-08-25T03:34:58.154Z,1003.39
2018-08-25T03:35:58.153Z,1003.55
2018-08-25T03:36:58.080Z,1003.37
2018-08-25T03:37:58.042Z,1003.32
2018-08-25T03:38:58.004Z,1003.31
2018-08-25T03:39:57.968Z,1003.32
2018-08-25T03:40:57.922Z,1003.35
2018-08-25T03:41:57.903Z,1003.33
2018-08-25T03:42:57.848Z,1003.34
2018-08-25T03:43:57.808Z,1003.33
2018-08-25T03:44:57.771Z,1003.37
2018-08-25T03:45:57.730Z,1003.35
2018-08-25T03:46:57.706Z,1003.32
2018-08-25T03:47:57.640Z,1003.37
2018-08-25T03:48:57.601Z,1003.34
2018-08-25T03:49:57.561Z,1003.39
2018-08-25T03:50:57.534Z,1003.42
2018-08-25T03:51:57.513Z,1003.38
2018-08-25T03:52:57.449Z,1003.42
2018-08-25T03:53:57.415Z,1003.37
2018-08-25T03:54:57.363Z,1003.33
2018-08-25T03:55:57.324Z,1003.34
2018-08-25T03:56:57.315Z,1003.38
2018-08-25T03:57:57.249Z,1003.35
2018-08-25T03:58:57.203Z,1003.29
2018-08-25T03:59:57.160Z,1003.30
2018-08-25T04:00:57.122Z,1003.27
2018-08-25T04:01:57.094Z,1003.23
2018-08-25T04:02:57.074Z,1003.21
2018-08-25T04:03:57.009Z,1003.22
2018-08-25T04:05:07.470Z,1003.20
2018-08-25T04:05:56.920Z,1003.16
2018-08-25T04:06:56.885Z,1003.15
2018-08-25T04:07:56.863Z,1003.17
2018-08-25T04:08:56.810Z,1003.23
2018-08-25T04:09:56.766Z,1003.22
2018-08-25T04:10:56.721Z,1003.19
2018-08-25T04:11:56.682Z,1003.21
2018-08-25T04:12:56.670Z,1003.23
2018-08-25T04:13:56.608Z,1003.21
2018-08-25T04:14:56.604Z,1003.25
2018-08-25T04:15:56.525Z,1003.21
2018-08-25T04:16:56.486Z,1003.22
2018-08-25T04:17:56.465Z,1003.22
2018-08-25T04:18:56.401Z,1003.18
2018-08-25T04:19:56.365Z,1003.21
2018-08-25T04:20:56.326Z,1003.25
2018-08-25T04:21:56.287Z,1003.17
2018-08-25T04:22:56.274Z,1003.14
2018-08-25T04:23:56.206Z,1003.16
2018-08-25T04:24:56.159Z,1003.18
2018-08-25T04:25:56.122Z,1003.19
2018-08-25T04:26:56.088Z,1003.21
2018-08-25T04:27:56.067Z,1003.23
2018-08-25T04:28:56.002Z,1003.24
2018-08-25T04:29:55.962Z,1003.23
2018-08-25T04:30:55.921Z,1003.21
2018-08-25T04:31:55.882Z,1003.21
2018-08-25T04:32:55.873Z,1003.17
2018-08-25T04:33:55.806Z,1003.19
2018-08-25T04:34:55.766Z,1003.16
2018-08-25T04:35:55.729Z,1003.10
2018-08-25T04:36:55.680Z,1003.10
2018-08-25T04:37:55.648Z,1003.16
2018-08-25T04:38:55.632Z,1003.15
2018-08-25T04:39:55.558Z,1003.20
2018-08-25T04:40:55.533Z,1003.17
2018-08-25T04:41:55.490Z,1003.19
2018-08-25T04:43:06.519Z,1003.20
2018-08-25T04:43:55.430Z,1003.23
2018-08-25T04:44:55.373Z,1003.22
2018-08-25T04:45:55.325Z,1003.24
2018-08-25T04:46:55.285Z,1003.25
2018-08-25T04:47:55.238Z,1003.29
2018-08-25T04:48:55.222Z,1003.28
2018-08-25T04:49:55.159Z,1003.32
2018-08-25T04:50:55.123Z,1003.29
2018-08-25T04:51:55.093Z,1003.32
2018-08-25T04:52:55.048Z,1003.29
2018-08-25T04:53:55.028Z,1003.45
2018-08-25T04:54:54.956Z,1003.39
2018-08-25T04:55:54.916Z,1003.42
2018-08-25T04:56:54.885Z,1003.47
2018-08-25T04:57:54.849Z,1003.49
2018-08-25T04:58:54.827Z,1003.50
2018-08-25T04:59:54.757Z,1003.47
2018-08-25T05:01:06.059Z,1003.48
2018-08-25T05:01:54.750Z,1003.41
2018-08-25T05:02:54.648Z,1003.48
2018-08-25T05:03:54.626Z,1003.52
2018-08-25T05:04:54.560Z,1003.51
2018-08-25T05:05:54.518Z,1003.52
2018-08-25T05:06:54.475Z,1003.53
2018-08-25T05:07:54.440Z,1003.56
2018-08-25T05:08:54.430Z,1003.54
2018-08-25T05:09:54.364Z,1003.56
2018-08-25T05:10:54.347Z,1003.57
2018-08-25T05:11:54.274Z,1003.57
2018-08-25T05:12:54.239Z,1003.60
2018-08-25T05:13:54.206Z,1003.55
2018-08-25T05:14:54.185Z,1003.58
2018-08-25T05:15:54.127Z,1003.55
2018-08-25T05:16:54.078Z,1003.58
2018-08-25T05:17:54.037Z,1003.54
2018-08-25T05:18:53.994Z,1003.57
2018-08-25T05:20:03.615Z,1003.57
2018-08-25T05:20:53.920Z,1003.58
2018-08-25T05:21:53.964Z,1003.60
2018-08-25T05:22:53.833Z,1003.62
2018-08-25T05:23:53.794Z,1003.59
2018-08-25T05:24:53.786Z,1003.59
2018-08-25T05:25:53.722Z,1003.63
2018-08-25T05:26:53.676Z,1003.63
2018-08-25T05:27:53.631Z,1003.67
2018-08-25T05:28:53.593Z,1003.70
2018-08-25T05:29:53.552Z,1003.68
2018-08-25T05:30:53.541Z,1003.67
2018-08-25T05:31:53.479Z,1003.66
2018-08-25T05:32:53.437Z,1003.67
2018-08-25T05:33:53.410Z,1003.72
2018-08-25T05:34:53.365Z,1003.73
2018-08-25T05:35:53.348Z,1003.77
2018-08-25T05:36:53.273Z,1003.87
2018-08-25T05:37:53.236Z,1003.81
2018-08-25T05:39:03.628Z,1003.79
2018-08-25T05:39:53.156Z,1003.82
2018-08-25T05:40:53.140Z,1003.78
2018-08-25T05:41:53.080Z,1003.74
2018-08-25T05:42:53.041Z,1003.77
2018-08-25T05:43:52.999Z,1003.85
2018-08-25T05:44:52.953Z,1003.82
2018-08-25T05:45:52.938Z,1003.80
2018-08-25T05:46:52.877Z,1003.84
2018-08-25T05:47:52.833Z,1003.79
2018-08-25T05:48:52.802Z,1003.78
2018-08-25T05:49:52.773Z,1003.80
2018-08-25T05:50:52.725Z,1003.82
2018-08-25T05:51:52.707Z,1003.87
2018-08-25T05:52:52.638Z,1003.90
2018-08-25T05:53:52.636Z,1003.89
2018-08-25T05:54:52.563Z,1003.90
2018-08-25T05:55:52.522Z,1003.93
2018-08-25T05:56:52.498Z,1003.94
2018-08-25T05:57:52.439Z,1003.92
2018-08-25T05:58:52.401Z,1003.98
2018-08-25T05:59:52.362Z,1003.98
2018-08-25T06:00:52.326Z,1003.98
2018-08-25T06:01:52.314Z,1004.00
2018-08-25T06:02:52.250Z,1004.01
2018-08-25T06:03:52.208Z,1004.04
2018-08-25T06:04:52.169Z,1004.00
2018-08-25T06:05:52.129Z,1004.01
2018-08-25T06:06:52.081Z,1004.07
2018-08-25T06:07:52.067Z,1004.14
2018-08-25T06:08:52.017Z,1004.16
2018-08-25T06:09:51.973Z,1004.09
2018-08-25T06:10:51.927Z,1004.11
2018-08-25T06:11:51.886Z,1004.18
2018-08-25T06:12:51.879Z,1004.17
2018-08-25T06:13:51.818Z,1004.25
2018-08-25T06:14:51.774Z,1004.18
2018-08-25T06:15:51.740Z,1004.21
2018-08-25T06:17:02.168Z,1004.20
2018-08-25T06:17:51.679Z,1004.24
2018-08-25T06:18:51.621Z,1004.21
2018-08-25T06:19:51.580Z,1004.20
2018-08-25T06:20:51.542Z,1004.17
2018-08-25T06:21:51.503Z,1004.22
2018-08-25T06:22:51.456Z,1004.23
2018-08-25T06:23:51.440Z,1004.23
2018-08-25T06:24:51.384Z,1004.24
2018-08-25T06:25:51.349Z,1004.26
2018-08-25T06:26:51.300Z,1004.32
2018-08-25T06:27:51.262Z,1004.33
2018-08-25T06:28:51.245Z,1004.38
2018-08-25T06:29:51.266Z,1004.37
2018-08-25T06:30:51.150Z,1004.39
2018-08-25T06:31:51.114Z,1004.32
2018-08-25T06:32:51.079Z,1004.34
2018-08-25T06:33:51.061Z,1004.32
2018-08-25T06:34:50.989Z,1004.37
2018-08-25T06:36:00.251Z,1004.39
2018-08-25T06:36:50.920Z,1004.31
2018-08-25T06:37:50.880Z,1004.31
2018-08-25T06:38:50.860Z,1004.34
2018-08-25T06:39:50.797Z,1004.32
2018-08-25T06:40:50.768Z,1004.36
2018-08-25T06:41:50.723Z,1004.31
2018-08-25T06:42:50.687Z,1004.40
2018-08-25T06:43:50.648Z,1004.38
2018-08-25T06:44:50.621Z,1004.45
2018-08-25T06:45:50.560Z,1004.56
2018-08-25T06:46:50.526Z,1004.59
2018-08-25T06:47:50.485Z,1004.46
2018-08-25T06:48:50.455Z,1004.36
2018-08-25T06:49:50.436Z,1004.38
2018-08-25T06:50:50.374Z,1004.32
2018-08-25T06:51:50.335Z,1004.38
2018-08-25T06:52:50.293Z,1004.49
2018-08-25T06:53:59.769Z,1005.04
2018-08-25T06:54:50.241Z,1005.01
2018-08-25T06:55:50.174Z,1004.41
2018-08-25T06:56:50.136Z,1004.37
2018-08-25T06:57:50.100Z,1004.37
2018-08-25T06:58:50.064Z,1004.42
2018-08-25T06:59:50.027Z,1004.34
2018-08-25T07:00:50.011Z,1004.46
2018-08-25T07:01:49.949Z,1004.43
2018-08-25T07:02:49.905Z,1004.40
2018-08-25T07:03:49.868Z,1004.39
2018-08-25T07:04:49.834Z,1004.41
2018-08-25T07:05:49.830Z,1004.47
2018-08-25T07:06:49.771Z,1004.48
2018-08-25T07:07:49.719Z,1004.52
2018-08-25T07:08:49.673Z,1004.41
2018-08-25T07:09:49.636Z,1004.45
2018-08-25T07:10:49.608Z,1004.51
2018-08-25T07:11:49.596Z,1004.48
2018-08-25T07:12:49.550Z,1004.50
2018-08-25T07:13:49.497Z,1004.47
2018-08-25T07:14:49.441Z,1004.55
2018-08-25T07:15:49.406Z,1004.59
2018-08-25T07:16:49.389Z,1004.64
2018-08-25T07:17:49.332Z,1004.56
2018-08-25T07:18:49.353Z,1004.52
2018-08-25T07:19:49.265Z,1004.52
2018-08-25T07:20:49.225Z,1004.53
2018-08-25T07:21:49.208Z,1004.57
2018-08-25T07:22:49.137Z,1004.56
2018-08-25T07:23:49.101Z,1004.60
2018-08-25T07:24:49.069Z,1004.58
2018-08-25T07:25:49.088Z,1004.55
2018-08-25T07:26:49.011Z,1004.57
2018-08-25T07:27:48.947Z,1004.64
2018-08-25T07:28:48.912Z,1004.64
2018-08-25T07:29:48.872Z,1004.61
2018-08-25T07:30:48.839Z,1004.56
2018-08-25T07:31:58.846Z,1004.62
2018-08-25T07:32:48.755Z,1004.63
2018-08-25T07:33:48.719Z,1004.68
2018-08-25T07:34:48.681Z,1004.68
2018-08-25T07:35:48.638Z,1004.59
2018-08-25T07:36:48.609Z,1004.62
2018-08-25T07:37:48.592Z,1004.62
2018-08-25T07:38:48.519Z,1004.69
2018-08-25T07:39:48.482Z,1004.64
2018-08-25T07:40:48.452Z,1004.63
2018-08-25T07:41:48.423Z,1004.65
2018-08-25T07:42:48.396Z,1004.73
2018-08-25T07:43:48.386Z,1004.76
2018-08-25T07:44:48.294Z,1004.82
2018-08-25T07:45:48.255Z,1004.88
2018-08-25T07:46:48.214Z,1004.94
2018-08-25T07:47:48.201Z,1005.40
2018-08-25T07:48:48.140Z,1004.83
2018-08-25T07:49:48.106Z,1004.82
2018-08-25T07:50:48.073Z,1004.80
2018-08-25T07:51:48.029Z,1004.93
2018-08-25T07:52:48.037Z,1005.38
2018-08-25T07:53:48.046Z,1004.88
2018-08-25T07:54:47.921Z,1005.00
2018-08-25T07:55:47.895Z,1005.04
2018-08-25T07:56:47.832Z,1005.13
2018-08-25T07:57:47.819Z,1005.13
2018-08-25T07:58:47.779Z,1004.99
2018-08-25T07:59:47.727Z,1005.01
2018-08-25T08:00:47.698Z,1005.04
2018-08-25T08:01:47.682Z,1005.53
2018-08-25T08:02:47.609Z,1005.11
2018-08-25T08:03:47.614Z,1004.97
2018-08-25T08:04:47.610Z,1005.07
2018-08-25T08:05:47.511Z,1005.09
2018-08-25T08:06:57.855Z,1005.10
2018-08-25T08:07:47.426Z,1005.14
2018-08-25T08:08:47.393Z,1005.10
2018-08-25T08:09:47.371Z,1005.19
2018-08-25T08:10:47.311Z,1005.11
2018-08-25T08:11:47.281Z,1005.15
2018-08-25T08:12:47.241Z,1005.04
2018-08-25T08:13:47.202Z,1005.14
2018-08-25T08:14:47.180Z,1005.11
2018-08-25T08:15:47.121Z,1005.12
2018-08-25T08:16:47.082Z,1005.15
2018-08-25T08:17:47.046Z,1005.08
2018-08-25T08:18:47.015Z,1005.22
2018-08-25T08:19:46.998Z,1005.16
2018-08-25T08:20:46.944Z,1005.17
2018-08-25T08:21:46.909Z,1005.11
2018-08-25T08:22:46.861Z,1005.12
2018-08-25T08:23:46.823Z,1005.10
2018-08-25T08:24:46.815Z,1005.14
2018-08-25T08:25:46.758Z,1005.10
2018-08-25T08:26:46.714Z,1005.14
2018-08-25T08:27:46.677Z,1005.12
2018-08-25T08:28:46.639Z,1005.11
2018-08-25T08:29:46.633Z,1005.19
2018-08-25T08:30:46.582Z,1005.20
2018-08-25T08:31:46.538Z,1005.28
2018-08-25T08:32:47.037Z,1005.37
2018-08-25T08:33:46.527Z,1005.54
2018-08-25T08:34:46.433Z,1005.77
2018-08-25T08:35:46.409Z,1005.49
2018-08-25T08:36:46.345Z,1005.47
2018-08-25T08:37:46.308Z,1005.48
2018-08-25T08:38:46.289Z,1005.46
2018-08-25T08:39:46.241Z,1005.48
2018-08-25T08:40:46.222Z,1005.56
2018-08-25T08:41:46.163Z,1005.48
2018-08-25T08:42:46.129Z,1005.49
2018-08-25T08:43:46.107Z,1005.44
2018-08-25T08:44:46.060Z,1005.50
2018-08-25T08:45:46.030Z,1005.55
2018-08-25T08:46:45.997Z,1005.55
2018-08-25T08:47:45.943Z,1005.43
2018-08-25T08:48:45.909Z,1005.47
2018-08-25T08:49:47.115Z,1005.68
2018-08-25T08:50:45.863Z,1005.55
2018-08-25T08:51:45.808Z,1005.87
2018-08-25T08:52:45.767Z,1005.47
2018-08-25T08:53:45.735Z,1005.45
2018-08-25T08:54:45.704Z,1005.44
2018-08-25T08:55:45.676Z,1005.45
2018-08-25T08:56:45.623Z,1005.47
2018-08-25T08:57:45.587Z,1005.47
2018-08-25T08:58:45.545Z,1005.57
2018-08-25T08:59:45.511Z,1005.95
2018-08-25T09:00:55.417Z,1005.61
2018-08-25T09:01:45.444Z,1005.63
2018-08-25T09:02:45.407Z,1005.56
2018-08-25T09:03:45.371Z,1005.47
2018-08-25T09:04:45.330Z,1005.53
2018-08-25T09:05:45.295Z,1005.58
2018-08-25T09:06:45.280Z,1005.62
2018-08-25T09:07:45.223Z,1005.55
2018-08-25T09:08:45.194Z,1005.58
2018-08-25T09:09:45.157Z,1005.61
2018-08-25T09:10:45.133Z,1005.63
2018-08-25T09:11:45.131Z,1005.65
2018-08-25T09:12:45.050Z,1005.71
2018-08-25T09:13:45.014Z,1005.65
2018-08-25T09:14:44.983Z,1005.74
2018-08-25T09:15:44.967Z,1006.55
2018-08-25T09:16:44.897Z,1006.42
2018-08-25T09:17:44.863Z,1006.22
2018-08-25T09:18:44.825Z,1006.01
2018-08-25T09:19:44.787Z,1005.96
2018-08-25T09:20:44.764Z,1006.05
2018-08-25T09:21:44.748Z,1006.36
2018-08-25T09:22:44.690Z,1005.93
2018-08-25T09:23:44.653Z,1005.84
2018-08-25T09:24:44.610Z,1005.91
2018-08-25T09:25:44.577Z,1005.92
2018-08-25T09:26:44.575Z,1005.96
2018-08-25T09:27:44.512Z,1005.97
2018-08-25T09:28:44.471Z,1006.00
2018-08-25T09:29:44.440Z,1005.99
2018-08-25T09:30:44.400Z,1006.00
2018-08-25T09:31:44.395Z,1006.02
2018-08-25T09:32:44.339Z,1005.94
2018-08-25T09:33:44.307Z,1006.51
2018-08-25T09:34:44.272Z,1006.15
2018-08-25T09:35:44.280Z,1006.09
2018-08-25T09:36:44.301Z,1005.94
2018-08-25T09:37:44.186Z,1005.87
2018-08-25T09:38:44.128Z,1005.86
2018-08-25T09:39:44.095Z,1006.69
2018-08-25T09:40:44.051Z,1006.36
2018-08-25T09:41:44.106Z,1006.22
2018-08-25T09:42:43.991Z,1006.12
2018-08-25T09:43:43.953Z,1006.03
2018-08-25T09:44:43.911Z,1006.11
2018-08-25T09:45:43.883Z,1006.25
2018-08-25T09:46:43.841Z,1006.97
2018-08-25T09:47:43.830Z,1006.79
2018-08-25T09:48:43.782Z,1006.44
2018-08-25T09:49:43.750Z,1006.26
2018-08-25T09:50:43.714Z,1006.60
2018-08-25T09:51:43.775Z,1006.19
2018-08-25T09:52:43.662Z,1006.24
2018-08-25T09:53:53.941Z,1006.40
2018-08-25T09:54:43.583Z,1006.88
2018-08-25T09:55:43.545Z,1006.88
2018-08-25T09:56:43.507Z,1006.93
2018-08-25T09:57:43.493Z,1006.26
2018-08-25T09:58:43.444Z,1006.25
2018-08-25T09:59:43.416Z,1006.98
2018-08-25T10:00:43.380Z,1006.26
2018-08-25T10:01:43.344Z,1006.25
2018-08-25T10:02:43.327Z,1006.14
2018-08-25T10:03:43.272Z,1006.09
2018-08-25T10:04:43.243Z,1006.12
2018-08-25T10:05:43.204Z,1006.31
2018-08-25T10:06:43.182Z,1006.90
2018-08-25T10:07:43.179Z,1006.42
2018-08-25T10:08:43.121Z,1006.88
2018-08-25T10:09:43.080Z,1006.84
2018-08-25T10:10:43.077Z,1006.83
2018-08-25T10:11:43.008Z,1006.39
2018-08-25T10:12:42.982Z,1006.90
2018-08-25T10:13:53.496Z,1006.96
2018-08-25T10:14:42.912Z,1006.98
2018-08-25T10:15:42.878Z,1006.97
2018-08-25T10:16:42.896Z,1006.17
2018-08-25T10:17:42.820Z,1006.17
2018-08-25T10:18:42.809Z,1006.28
2018-08-25T10:19:42.757Z,1006.19
2018-08-25T10:20:42.717Z,1006.81
2018-08-25T10:21:42.688Z,1006.91
2018-08-25T10:22:42.654Z,1006.96
2018-08-25T10:23:42.690Z,1006.98
2018-08-25T10:24:42.601Z,1006.37
2018-08-25T10:25:42.566Z,1006.40
2018-08-25T10:26:42.527Z,1006.90
2018-08-25T10:27:42.496Z,1006.71
2018-08-25T10:28:42.471Z,1006.29
2018-08-25T10:29:42.466Z,1006.89
2018-08-25T10:30:42.407Z,1006.49
2018-08-25T10:31:42.376Z,1006.86
2018-08-25T10:32:42.336Z,1006.90
2018-08-25T10:33:42.305Z,1006.87
2018-08-25T10:34:42.297Z,1006.90
2018-08-25T10:35:42.292Z,1006.79
2018-08-25T10:36:42.219Z,1006.81
2018-08-25T10:37:42.185Z,1006.87
2018-08-25T10:38:42.151Z,1006.27
2018-08-25T10:39:42.141Z,1006.21
2018-08-25T10:40:42.082Z,1006.83
2018-08-25T10:41:42.094Z,1006.87
2018-08-25T10:42:42.022Z,1006.89
2018-08-25T10:43:41.992Z,1006.84
2018-08-25T10:44:41.983Z,1006.96
2018-08-25T10:45:41.923Z,1006.46
2018-08-25T10:46:41.893Z,1006.61
2018-08-25T10:47:41.861Z,1006.80
2018-08-25T10:48:41.838Z,1006.51
2018-08-25T10:49:41.807Z,1006.49
2018-08-25T10:50:41.795Z,1006.96
2018-08-25T10:51:41.747Z,1006.44
2018-08-25T10:52:41.707Z,1007.06
2018-08-25T10:53:41.675Z,1006.92
2018-08-25T10:54:41.647Z,1006.85
2018-08-25T10:55:41.635Z,1006.96
2018-08-25T10:56:41.592Z,1006.99
2018-08-25T10:57:41.567Z,1006.38
2018-08-25T10:58:41.522Z,1006.86
2018-08-25T10:59:41.492Z,1006.23
2018-08-25T11:00:41.659Z,1006.27
2018-08-25T11:01:41.441Z,1007.02
2018-08-25T11:02:41.406Z,1006.82
2018-08-25T11:03:41.372Z,1007.01
2018-08-25T11:04:41.336Z,1006.95
2018-08-25T11:05:41.311Z,1006.90
2018-08-25T11:06:41.293Z,1006.94
2018-08-25T11:07:41.243Z,1006.84
2018-08-25T11:08:41.225Z,1006.88
2018-08-25T11:09:41.191Z,1006.85
2018-08-25T11:10:41.158Z,1006.87
2018-08-25T11:11:41.147Z,1006.90
2018-08-25T11:12:41.090Z,1006.74
2018-08-25T11:13:41.061Z,1006.72
2018-08-25T11:14:41.039Z,1006.39
2018-08-25T11:15:41.005Z,1006.93
2018-08-25T11:16:40.991Z,1006.92
2018-08-25T11:17:40.943Z,1006.34
2018-08-25T11:18:40.908Z,1006.40
2018-08-25T11:19:40.880Z,1006.44
2018-08-25T11:20:40.858Z,1006.36
2018-08-25T11:21:40.850Z,1006.44
2018-08-25T11:22:40.797Z,1006.28
2018-08-25T11:23:40.789Z,1006.34
2018-08-25T11:24:40.732Z,1006.38
2018-08-25T11:25:40.693Z,1006.33
2018-08-25T11:26:40.688Z,1006.37
2018-08-25T11:27:40.632Z,1006.40
2018-08-25T11:28:40.604Z,1006.56
2018-08-25T11:29:40.576Z,1006.92
2018-08-25T11:30:40.534Z,1006.80
2018-08-25T11:31:40.503Z,1006.88
2018-08-25T11:32:40.499Z,1006.94
2018-08-25T11:33:40.449Z,1006.85
2018-08-25T11:34:40.416Z,1006.45
2018-08-25T11:35:40.384Z,1006.82
2018-08-25T11:36:40.352Z,1006.84
2018-08-25T11:37:40.410Z,1006.76
2018-08-25T11:38:40.275Z,1006.54
2018-08-25T11:39:40.247Z,1006.65
2018-08-25T11:40:40.221Z,1006.49
2018-08-25T11:41:40.189Z,1006.82
2018-08-25T11:42:40.159Z,1006.40
2018-08-25T11:43:40.144Z,1006.36
2018-08-25T11:44:40.094Z,1006.38
2018-08-25T11:45:40.055Z,1006.36
2018-08-25T11:46:40.032Z,1006.38
2018-08-25T11:47:39.998Z,1006.26
2018-08-25T11:48:39.981Z,1006.25
2018-08-25T11:49:39.926Z,1006.24
2018-08-25T11:50:39.893Z,1006.20
2018-08-25T11:51:39.866Z,1006.19
2018-08-25T11:52:39.837Z,1006.28
2018-08-25T11:53:39.827Z,1006.20
2018-08-25T11:54:39.771Z,1006.32
2018-08-25T11:55:39.739Z,1006.36
2018-08-25T11:56:39.702Z,1006.36
2018-08-25T11:57:39.664Z,1006.33
2018-08-25T11:58:39.655Z,1006.38
2018-08-25T11:59:39.598Z,1006.58
2018-08-25T12:00:39.570Z,1006.78
2018-08-25T12:01:39.537Z,1006.82
2018-08-25T12:02:39.497Z,1006.97
2018-08-25T12:03:39.503Z,1006.81
2018-08-25T12:04:39.459Z,1006.81